Ana Sayfa
METAR-TAF:

METAR-TAF

Havaalanları :

Cadillac, Michigan, Amerika Birleşik Devletleri

Enlem: 44-17N, Boylam: 085-25W, yükseklik: 398 m

Güncel hava durumu gözlemi

Rapor saat 15:16 UTC de 24 dakika önce yapıldı.
Rüzgar batı/güneybatıdan 7 kt
Sıcaklık 22°C
Nem 88%
Basınç 1014 hPa
Görüş mesafesi: 16.1 km
300 ft yükseklikte parçalı çok bulutlu
1000 ft yükseklikte çok bulutlu

METAR: KCAD 211516Z AUTO 25007KT 10SM BKN003 OVC010 22/20 A2993 RMK AO2 T02230208

Saat: 11:40 (15:40 UTC)


TAF: eksik

4.000'den fazla havaalanı için hava durumu gözlemleri ve tahminleri (METAR ve TAF raporları).

Kullanılabilir istasyonlar harita üzerinde sarı ve kırmızı noktalarla gösterilir.

İstasyonun adını görmek için fareyi noktanın üzerinde gezdirin.

Sonrasında hava gözlem ve tahminlerini görmek için tıklayın.

Haritayı değiştirmek için: yaklaştırmak için siyah artı işaretli yeşil düğmeye ve uzaklaştırmak için de eksi işaretli düğmeye hızla tıklayın; bitişik haritalar için yeşil okları kullanın.


METAR-TAF: